Time;durP1;ratioP1;P1;durP2;ratioP2;P2;SDS_P1;SDS_P2;PMS_P1;PMS_P2;Temp;Humidity;BMP_temperature;BMP_pressure;BME280_temperature;BME280_humidity;BME280_pressure;Samples;Min_cycle;Max_cycle;Signal;HPM_P1;HPM_P2
2023/11/26 00:00:07;;;;;;;1.00;0.20;;;;;;;2.18;100.00;98133.79;109453;1250;74716;-68
2023/11/26 00:02:35;;;;;;;0.60;0.20;;;;;;;2.20;100.00;98125.58;109446;1251;65784;-68
2023/11/26 00:05:03;;;;;;;0.50;0.20;;;;;;;2.21;100.00;98125.36;109425;1253;72929;-68
2023/11/26 00:07:31;;;;;;;0.60;0.20;;;;;;;2.21;100.00;98119.31;109433;1251;60981;-68
2023/11/26 00:09:58;;;;;;;0.80;0.20;;;;;;;2.22;100.00;98112.63;109501;1251;59110;-69
2023/11/26 00:12:26;;;;;;;1.00;0.40;;;;;;;2.23;100.00;98105.09;109389;1251;74744;-69
2023/11/26 00:14:54;;;;;;;0.90;0.20;;;;;;;2.25;100.00;98104.99;109441;1250;66127;-68
2023/11/26 00:17:22;;;;;;;1.80;0.30;;;;;;;2.26;100.00;98099.73;109456;1251;72725;-69
2023/11/26 00:19:50;;;;;;;1.10;0.50;;;;;;;2.27;100.00;98098.84;109421;1250;59684;-68
2023/11/26 00:22:17;;;;;;;1.00;0.30;;;;;;;2.29;100.00;98087.67;109360;1251;59384;-69
2023/11/26 00:24:45;;;;;;;1.10;0.30;;;;;;;2.29;100.00;98081.46;109444;1251;74860;-68
2023/11/26 00:27:13;;;;;;;0.70;0.30;;;;;;;2.31;100.00;98072.03;109440;1250;67469;-68
2023/11/26 00:29:41;;;;;;;0.80;0.20;;;;;;;2.33;100.00;98067.34;109302;1250;71415;-68
2023/11/26 00:32:09;;;;;;;1.10;0.40;;;;;;;2.36;100.00;98063.89;109343;1250;61104;-68
2023/11/26 00:34:37;;;;;;;1.10;0.40;;;;;;;2.38;100.00;98061.69;109476;1250;60151;-69
2023/11/26 00:37:05;;;;;;;1.60;0.40;;;;;;;2.40;100.00;98056.80;109399;1250;74711;-69
2023/11/26 00:39:32;;;;;;;1.00;0.40;;;;;;;2.43;100.00;98053.63;109455;1256;66846;-68
2023/11/26 00:42:00;;;;;;;1.30;0.30;;;;;;;2.46;100.00;98053.97;109425;1251;71442;-68
2023/11/26 00:44:28;;;;;;;2.20;0.60;;;;;;;2.47;100.00;98063.05;109458;1251;60948;-68
2023/11/26 00:46:56;;;;;;;2.10;0.70;;;;;;;2.50;100.00;98065.75;109435;1250;60646;-68
2023/11/26 00:49:24;;;;;;;1.90;0.50;;;;;;;2.52;100.00;98058.68;109442;1251;74622;-69
2023/11/26 00:51:52;;;;;;;1.50;0.60;;;;;;;2.54;100.00;98056.88;109455;1251;65843;-65
2023/11/26 00:54:19;;;;;;;1.60;0.70;;;;;;;2.56;100.00;98059.90;109455;1251;73358;-67
2023/11/26 00:56:47;;;;;;;1.90;0.70;;;;;;;2.58;100.00;98054.22;109420;1250;60957;-68
2023/11/26 00:59:14;;;;;;;1.60;0.60;;;;;;;2.59;100.00;98049.21;109448;1251;59385;-68
2023/11/26 01:01:42;;;;;;;1.00;0.50;;;;;;;2.63;100.00;98043.23;109477;1251;74705;-67
2023/11/26 01:04:10;;;;;;;1.80;0.80;;;;;;;2.67;100.00;98040.20;109378;1251;66700;-68
2023/11/26 01:06:38;;;;;;;2.00;0.60;;;;;;;2.70;100.00;98036.98;109472;1251;72911;-68
2023/11/26 01:09:07;;;;;;;2.50;0.90;;;;;;;2.73;100.00;98037.86;109433;1251;59681;-67
2023/11/26 01:11:37;;;;;;;2.10;0.90;;;;;;;2.76;100.00;98028.23;109468;1252;60171;-67
2023/11/26 01:14:06;;;;;;;2.50;1.20;;;;;;;2.79;100.00;98022.17;109439;1251;74907;-67
2023/11/26 01:16:34;;;;;;;1.90;1.00;;;;;;;2.83;100.00;98014.15;109532;1251;67029;-67
2023/11/26 01:19:02;;;;;;;3.00;1.40;;;;;;;2.86;100.00;98010.61;109512;1251;72741;-67
2023/11/26 01:21:31;;;;;;;3.10;1.50;;;;;;;2.89;100.00;98012.41;109463;1251;60949;-67
2023/11/26 01:23:58;;;;;;;2.50;1.10;;;;;;;2.94;100.00;98004.52;109424;1251;60119;-67
2023/11/26 01:26:26;;;;;;;2.90;1.40;;;;;;;2.99;100.00;97992.91;109506;1250;73897;-67
2023/11/26 01:28:54;;;;;;;4.90;1.70;;;;;;;3.05;100.00;97984.08;109440;1251;65827;-67
2023/11/26 01:31:21;;;;;;;3.50;1.70;;;;;;;3.09;100.00;97978.90;109415;1251;72762;-67
2023/11/26 01:33:49;;;;;;;4.10;2.10;;;;;;;3.14;100.00;97978.86;109427;1256;60847;-65
2023/11/26 01:36:18;;;;;;;3.80;2.00;;;;;;;3.17;100.00;97992.52;109437;1253;58893;-67
2023/11/26 01:38:46;;;;;;;5.20;3.20;;;;;;;3.21;100.00;98001.83;109470;1251;74758;-67
2023/11/26 01:41:13;;;;;;;4.30;2.10;;;;;;;3.27;100.00;98009.34;109461;1251;65711;-67
2023/11/26 01:43:41;;;;;;;5.70;3.40;;;;;;;3.32;100.00;98012.64;109414;1251;71886;-66
2023/11/26 01:46:12;;;;;;;4.10;2.10;;;;;;;3.38;100.00;98011.59;109385;1253;61635;-67
2023/11/26 01:48:40;;;;;;;6.60;3.00;;;;;;;3.44;100.00;98014.63;109187;1250;60142;-67
2023/11/26 01:51:10;;;;;;;5.70;3.50;;;;;;;3.48;100.00;98017.73;109255;1258;73617;-67
2023/11/26 01:53:39;;;;;;;5.00;2.70;;;;;;;3.53;100.00;98025.32;109408;1256;67005;-65
2023/11/26 01:56:07;;;;;;;6.50;3.80;;;;;;;3.58;100.00;98023.25;109440;1251;72739;-67
2023/11/26 01:58:35;;;;;;;6.90;4.70;;;;;;;3.66;100.00;98018.87;109408;1251;59678;-67
2023/11/26 02:01:03;;;;;;;6.00;4.20;;;;;;;3.73;100.00;98013.94;109162;1252;60129;-67
2023/11/26 02:03:30;;;;;;;9.00;5.30;;;;;;;3.80;100.00;98005.63;109251;1251;74809;-66
2023/11/26 02:05:58;;;;;;;8.00;3.60;;;;;;;3.86;100.00;97993.80;109403;1251;67778;-67
2023/11/26 02:08:26;;;;;;;7.20;3.70;;;;;;;3.91;100.00;97988.36;109432;1251;70871;-67
2023/11/26 02:10:55;;;;;;;6.90;3.70;;;;;;;3.95;100.00;97986.20;109441;1251;62280;-66
2023/11/26 02:13:23;;;;;;;5.50;3.70;;;;;;;3.96;100.00;97982.70;109457;1252;58837;-67
2023/11/26 02:15:51;;;;;;;6.10;3.50;;;;;;;3.96;100.00;97980.17;109362;1253;73720;-67
2023/11/26 02:18:19;;;;;;;5.30;3.20;;;;;;;3.98;100.00;97970.33;109427;1253;65759;-67
2023/11/26 02:20:47;;;;;;;9.10;4.10;;;;;;;3.98;100.00;97958.09;109268;1251;71439;-66
2023/11/26 02:23:14;;;;;;;14.00;7.70;;;;;;;3.96;100.00;97950.83;109421;1251;60510;-66
2023/11/26 02:25:42;;;;;;;15.10;8.10;;;;;;;3.92;100.00;97965.89;109223;1250;58895;-63
2023/11/26 02:28:11;;;;;;;13.50;6.30;;;;;;;3.89;100.00;97967.79;109420;1251;74670;-65
2023/11/26 02:30:39;;;;;;;11.60;5.90;;;;;;;3.88;100.00;97969.02;109465;1250;65869;-65
2023/11/26 02:33:07;;;;;;;10.90;5.70;;;;;;;3.86;100.00;97966.13;109424;1253;72700;-65
2023/11/26 02:35:34;;;;;;;12.20;7.20;;;;;;;3.84;100.00;97965.33;109438;1250;60508;-63
2023/11/26 02:38:03;;;;;;;16.00;9.70;;;;;;;3.82;100.00;97959.30;109449;1251;60272;-65
2023/11/26 02:40:31;;;;;;;14.20;9.00;;;;;;;3.79;100.00;97956.59;109451;1251;74623;-66
2023/11/26 02:42:59;;;;;;;14.70;8.20;;;;;;;3.77;100.00;97948.98;109474;1250;66115;-65
2023/11/26 02:45:27;;;;;;;15.20;8.00;;;;;;;3.75;100.00;97946.13;109373;1252;73224;-64
2023/11/26 02:47:54;;;;;;;21.70;11.20;;;;;;;3.73;100.00;97944.98;109383;1251;60565;-65
2023/11/26 02:50:23;;;;;;;21.30;11.40;;;;;;;3.73;100.00;97953.56;109430;1250;60117;-65
2023/11/26 02:52:51;;;;;;;17.60;9.80;;;;;;;3.74;100.00;97960.46;109466;1251;73365;-65
2023/11/26 02:55:18;;;;;;;15.50;8.90;;;;;;;3.75;100.00;97966.21;109475;1251;65593;-63
2023/11/26 02:57:46;;;;;;;12.80;7.70;;;;;;;3.77;100.00;97962.54;109456;1251;73049;-65
2023/11/26 03:00:20;;;;;;;9.90;6.50;;;;;;;3.79;100.00;97959.48;109436;1251;60462;-65
2023/11/26 03:02:47;;;;;;;9.30;5.80;;;;;;;3.82;100.00;97962.34;109235;1251;60038;-65
2023/11/26 03:05:19;;;;;;;10.00;6.30;;;;;;;3.84;100.00;97955.61;109423;1251;74684;-65
2023/11/26 03:07:50;;;;;;;12.80;8.10;;;;;;;3.85;100.00;97954.70;109366;1251;67172;-65
2023/11/26 03:13:11;;;;;;;14.30;8.60;;;;;;;3.88;100.00;97955.10;109377;1251;60396;-64
2023/11/26 03:15:40;;;;;;;13.10;7.70;;;;;;;3.91;100.00;97954.82;109447;1251;61409;-65
2023/11/26 03:18:08;;;;;;;14.10;8.00;;;;;;;3.96;100.00;97955.77;109434;1252;73574;-65
2023/11/26 03:20:36;;;;;;;14.10;7.40;;;;;;;4.00;100.00;97944.57;109430;1251;65435;-65
2023/11/26 03:23:04;;;;;;;11.90;7.50;;;;;;;4.04;100.00;97943.22;109400;1251;73531;-68
2023/11/26 03:25:33;;;;;;;10.10;6.20;;;;;;;4.07;100.00;97939.58;109398;1256;60485;-65
2023/11/26 03:28:00;;;;;;;9.80;5.90;;;;;;;4.11;100.00;97934.09;109400;1253;58883;-65
2023/11/26 03:30:28;;;;;;;9.70;5.90;;;;;;;4.14;100.00;97927.23;109493;1251;74731;-65
2023/11/26 03:32:56;;;;;;;11.80;6.40;;;;;;;4.18;100.00;97921.20;109386;1254;66529;-64
2023/11/26 03:35:24;;;;;;;15.70;5.90;;;;;;;4.20;100.00;97920.41;109406;1251;73212;-64
2023/11/26 03:37:54;;;;;;;11.20;6.40;;;;;;;4.25;100.00;97920.96;109453;1253;60451;-65
2023/11/26 03:40:21;;;;;;;12.80;7.30;;;;;;;4.30;100.00;97915.29;109466;1251;59438;-64
2023/11/26 03:42:49;;;;;;;9.20;6.70;;;;;;;4.36;100.00;97911.23;109414;1251;74729;-63
2023/11/26 03:45:17;;;;;;;10.90;7.80;;;;;;;4.42;100.00;97904.40;109418;1251;67141;-64
2023/11/26 03:47:46;;;;;;;10.60;6.70;;;;;;;4.47;100.00;97906.50;109432;1251;71576;-64
2023/11/26 03:50:14;;;;;;;12.20;7.00;;;;;;;4.53;100.00;97904.85;109423;1251;60597;-64
2023/11/26 03:52:43;;;;;;;12.00;7.70;;;;;;;4.61;100.00;97901.20;109390;1251;60020;-62
2023/11/26 03:55:10;;;;;;;11.30;7.90;;;;;;;4.70;100.00;97899.23;109471;1251;74688;-64
2023/11/26 03:57:38;;;;;;;10.80;7.80;;;;;;;4.78;100.00;97901.78;109438;1251;66942;-64
2023/11/26 04:00:08;;;;;;;11.80;7.20;;;;;;;4.82;100.00;97901.37;109433;1251;72708;-64
2023/11/26 04:02:42;;;;;;;11.60;8.00;;;;;;;4.86;100.00;97900.16;109389;1251;60461;-64
2023/11/26 04:05:11;;;;;;;11.20;6.40;;;;;;;4.90;100.00;97899.98;109425;1253;58945;-64
2023/11/26 04:07:39;;;;;;;12.00;6.80;;;;;;;4.93;100.00;97896.44;109424;1251;73622;-65
2023/11/26 04:10:08;;;;;;;10.60;7.00;;;;;;;4.99;100.00;97892.65;109466;1251;66975;-65
2023/11/26 04:12:39;;;;;;;12.20;7.50;;;;;;;5.02;100.00;97888.85;109218;1253;71415;-65
2023/11/26 04:15:09;;;;;;;13.90;8.20;;;;;;;5.05;100.00;97885.71;109437;1251;60463;-66
2023/11/26 04:17:37;;;;;;;12.80;8.20;;;;;;;5.08;100.00;97881.56;109406;1251;59008;-66
2023/11/26 04:20:05;;;;;;;11.30;7.90;;;;;;;5.09;100.00;97881.52;109474;1251;74494;-66
2023/11/26 04:22:33;;;;;;;15.00;8.90;;;;;;;5.10;100.00;97879.73;109393;1254;67554;-66
2023/11/26 04:25:01;;;;;;;14.30;10.50;;;;;;;5.11;100.00;97880.09;109507;1251;72777;-65
2023/11/26 04:27:30;;;;;;;14.80;9.50;;;;;;;5.15;100.00;97877.24;109405;1254;61716;-66
2023/11/26 04:29:58;;;;;;;15.90;10.00;;;;;;;5.19;100.00;97874.84;109488;1256;60151;-65
2023/11/26 04:32:25;;;;;;;15.90;9.90;;;;;;;5.25;100.00;97873.54;109383;1255;73769;-65
2023/11/26 04:34:53;;;;;;;15.40;11.00;;;;;;;5.38;100.00;97878.15;109471;1251;66447;-65
2023/11/26 04:37:21;;;;;;;13.40;9.50;;;;;;;5.57;100.00;97876.44;109477;1254;72758;-65
2023/11/26 04:39:49;;;;;;;16.50;9.80;;;;;;;5.83;100.00;97887.61;109376;1254;61832;-66
2023/11/26 04:42:17;;;;;;;16.30;11.30;;;;;;;6.00;100.00;97887.77;109460;1251;60130;-63
2023/11/26 04:44:45;;;;;;;17.10;11.90;;;;;;;6.14;100.00;97883.41;109387;1255;74685;-65
2023/11/26 04:47:12;;;;;;;19.20;12.40;;;;;;;6.25;100.00;97887.13;109488;1251;66251;-65
2023/11/26 04:49:40;;;;;;;24.40;19.80;;;;;;;6.33;100.00;97889.12;109517;1252;72735;-65
2023/11/26 04:52:08;;;;;;;19.90;14.20;;;;;;;6.38;100.00;97892.73;109484;1251;60472;-65
2023/11/26 04:54:36;;;;;;;18.90;14.00;;;;;;;6.43;100.00;97890.86;109417;1256;58965;-65
2023/11/26 04:57:04;;;;;;;17.60;14.40;;;;;;;6.46;100.00;97887.08;109453;1251;74618;-65
2023/11/26 04:59:32;;;;;;;17.70;13.20;;;;;;;6.49;100.00;97887.18;109468;1254;66964;-66
2023/11/26 05:02:05;;;;;;;18.30;12.70;;;;;;;6.52;100.00;97886.14;109464;1251;72881;-65
2023/11/26 05:04:34;;;;;;;17.80;15.10;;;;;;;6.53;100.00;97886.38;109408;1251;61797;-65
2023/11/26 05:07:01;;;;;;;20.40;13.50;;;;;;;6.62;100.00;97878.77;109552;1254;60127;-66
2023/11/26 05:09:31;;;;;;;18.10;10.90;;;;;;;6.67;100.00;97874.36;109462;1251;74626;-66
2023/11/26 05:11:59;;;;;;;13.60;10.20;;;;;;;6.76;100.00;97873.83;109481;1251;65790;-65
2023/11/26 05:14:26;;;;;;;18.20;10.90;;;;;;;6.88;100.00;97867.48;109451;1254;71409;-65
2023/11/26 05:16:54;;;;;;;16.90;9.70;;;;;;;6.99;100.00;97871.68;109405;1251;61754;-65
2023/11/26 05:19:22;;;;;;;13.90;10.60;;;;;;;7.11;100.00;97872.57;109413;1251;58980;-65
2023/11/26 05:21:49;;;;;;;14.30;11.40;;;;;;;7.25;100.00;97868.05;109480;1251;74763;-65
2023/11/26 05:24:17;;;;;;;27.80;17.40;;;;;;;7.37;100.00;97877.21;109382;1254;65749;-65
2023/11/26 05:26:45;;;;;;;22.70;13.10;;;;;;;7.45;100.00;97871.63;109411;1254;71443;-65
2023/11/26 05:29:12;;;;;;;19.20;10.90;;;;;;;7.53;100.00;97867.01;109420;1251;60467;-65
2023/11/26 05:31:40;;;;;;;15.60;11.80;;;;;;;7.60;100.00;97870.02;109433;1251;59464;-64
2023/11/26 05:34:07;;;;;;;49.10;35.50;;;;;;;7.66;100.00;97871.61;109435;1251;74678;-64
2023/11/26 05:36:35;;;;;;;19.70;14.40;;;;;;;7.73;100.00;97863.08;109480;1251;66203;-65
2023/11/26 05:39:03;;;;;;;17.70;13.10;;;;;;;7.82;100.00;97859.13;109446;1252;73187;-65
2023/11/26 05:41:32;;;;;;;13.30;11.10;;;;;;;7.89;100.00;97866.40;109468;1254;61898;-64
2023/11/26 05:44:00;;;;;;;43.20;32.80;;;;;;;7.95;100.00;97864.42;109468;1251;59063;-64
2023/11/26 05:46:28;;;;;;;63.00;52.00;;;;;;;8.01;100.00;97861.40;109419;1251;75661;-64
2023/11/26 05:48:55;;;;;;;110.50;92.30;;;;;;;8.08;100.00;97860.50;109496;1251;66389;-65
2023/11/26 05:51:24;;;;;;;41.10;27.00;;;;;;;8.15;100.00;97862.41;109279;1251;210608;-64
2023/11/26 05:53:52;;;;;;;38.70;28.60;;;;;;;8.23;100.00;97860.44;109438;1253;62078;-65
2023/11/26 05:56:23;;;;;;;17.00;14.00;;;;;;;8.31;100.00;97863.13;109472;1253;60698;-65
2023/11/26 05:58:50;;;;;;;16.20;11.70;;;;;;;8.39;100.00;97865.52;109535;1251;74862;-65
2023/11/26 06:01:23;;;;;;;15.70;11.40;;;;;;;8.48;100.00;97859.50;109466;1252;65662;-65
2023/11/26 06:03:52;;;;;;;17.00;11.50;;;;;;;8.57;100.00;97857.11;109428;1252;72751;-64
2023/11/26 06:06:20;;;;;;;17.90;10.70;;;;;;;8.63;100.00;97855.99;109438;1254;61693;-65
2023/11/26 06:08:48;;;;;;;19.30;11.70;;;;;;;8.72;100.00;97857.02;109421;1251;60059;-65
2023/11/26 06:11:15;;;;;;;15.60;11.30;;;;;;;8.84;100.00;97866.23;109534;1251;73370;-65
2023/11/26 06:13:43;;;;;;;15.70;10.30;;;;;;;8.94;100.00;97867.25;109411;1254;66464;-64
2023/11/26 06:16:11;;;;;;;16.90;11.00;;;;;;;9.05;100.00;97866.79;109563;1251;72695;-64
2023/11/26 06:18:39;;;;;;;23.40;11.00;;;;;;;9.17;100.00;97865.39;109537;1251;60536;-64
2023/11/26 06:21:06;;;;;;;15.20;11.40;;;;;;;9.29;100.00;97874.40;109426;1252;59025;-64
2023/11/26 06:23:34;;;;;;;16.30;10.70;;;;;;;9.41;100.00;97878.98;109453;1251;75583;-62
2023/11/26 06:26:02;;;;;;;15.50;10.50;;;;;;;9.51;100.00;97882.80;109437;1251;66841;-64
2023/11/26 06:28:30;;;;;;;15.60;11.20;;;;;;;9.60;100.00;97882.21;109538;1251;72700;-65
2023/11/26 06:30:57;;;;;;;12.70;9.90;;;;;;;9.68;100.00;97880.06;109448;1254;60442;-65
2023/11/26 06:33:25;;;;;;;17.10;10.30;;;;;;;9.75;100.00;97882.99;109500;1251;59810;-65
2023/11/26 06:35:53;;;;;;;15.50;9.40;;;;;;;9.84;100.00;97883.86;109409;1254;73426;-66
2023/11/26 06:38:20;;;;;;;15.40;10.60;;;;;;;9.92;100.00;97880.86;109443;1251;66161;-66
2023/11/26 06:40:49;;;;;;;16.30;10.70;;;;;;;9.98;100.00;97876.69;109441;1251;72714;-65
2023/11/26 06:43:16;;;;;;;18.30;8.80;;;;;;;10.01;100.00;97877.41;109404;1254;60604;-67
2023/11/26 06:45:44;;;;;;;13.20;8.40;;;;;;;10.05;100.00;97884.08;109411;1251;60074;-67
2023/11/26 06:48:12;;;;;;;12.20;9.40;;;;;;;10.09;100.00;97885.34;109461;1251;76861;-67
2023/11/26 06:50:39;;;;;;;12.20;9.20;;;;;;;10.12;100.00;97886.16;109432;1251;65712;-66
2023/11/26 06:53:07;;;;;;;13.40;9.70;;;;;;;10.14;100.00;97883.52;109437;1251;71308;-66
2023/11/26 06:55:34;;;;;;;16.10;9.50;;;;;;;10.18;100.00;97881.10;109433;1251;60470;-66
2023/11/26 06:58:02;;;;;;;14.50;9.20;;;;;;;10.22;100.00;97882.77;109468;1253;60860;-66
2023/11/26 07:00:31;;;;;;;13.00;8.40;;;;;;;10.30;100.00;97879.05;109441;1251;74786;-65
2023/11/26 07:02:59;;;;;;;10.30;7.40;;;;;;;10.38;100.00;97884.64;109473;1251;67598;-65
2023/11/26 07:05:26;;;;;;;11.80;8.60;;;;;;;10.48;100.00;97883.73;109430;1253;72721;-63
2023/11/26 07:07:54;;;;;;;14.00;8.00;;;;;;;10.55;100.00;97874.39;109416;1251;61796;-65
2023/11/26 07:10:21;;;;;;;18.90;13.90;;;;;;;10.58;100.00;97873.85;109533;1251;58952;-65
2023/11/26 07:12:50;;;;;;;19.70;17.40;;;;;;;10.61;100.00;97872.27;109451;1251;74922;-65
2023/11/26 07:15:17;;;;;;;15.80;14.00;;;;;;;10.64;100.00;97870.48;109382;1251;66913;-63
2023/11/26 07:17:45;;;;;;;15.90;10.00;;;;;;;10.65;100.00;97870.15;109410;1252;73300;-65
2023/11/26 07:20:16;;;;;;;10.20;8.10;;;;;;;10.69;100.00;97867.73;109449;1251;61714;-65
2023/11/26 07:22:44;;;;;;;12.00;7.70;;;;;;;10.72;100.00;97865.60;109446;1251;59512;-65
2023/11/26 07:25:15;;;;;;;12.30;7.40;;;;;;;10.78;100.00;97873.31;109455;1253;74725;-65
2023/11/26 07:27:42;;;;;;;14.10;7.40;;;;;;;10.82;100.00;97875.77;109502;1251;67007;-66
2023/11/26 07:30:11;;;;;;;14.30;9.80;;;;;;;10.88;100.00;97874.70;109404;1252;71471;-65
2023/11/26 07:32:42;;;;;;;16.90;11.70;;;;;;;10.98;100.00;97873.67;109404;1251;60464;-66
2023/11/26 07:35:10;;;;;;;15.60;11.90;;;;;;;11.08;100.00;97866.89;109448;1251;60203;-62
2023/11/26 07:37:37;;;;;;;15.30;10.50;;;;;;;11.20;100.00;97860.65;109444;1251;73638;-66
2023/11/26 07:40:06;;;;;;;19.90;13.80;;;;;;;11.35;100.00;97856.20;109480;1251;67437;-66
2023/11/26 07:42:34;;;;;;;17.00;13.30;;;;;;;11.49;100.00;97849.39;109443;1251;71407;-65
2023/11/26 07:45:06;;;;;;;14.20;8.70;;;;;;;11.59;100.00;97849.54;109397;1253;60609;-65
2023/11/26 07:47:34;;;;;;;10.70;7.50;;;;;;;11.69;100.00;97844.04;109470;1251;59237;-65
2023/11/26 07:50:02;;;;;;;10.20;6.60;;;;;;;11.80;100.00;97836.82;109412;1251;73823;-67
2023/11/26 07:52:30;;;;;;;14.10;6.40;;;;;;;11.94;100.00;97825.70;109456;1251;66194;-65
2023/11/26 07:54:57;;;;;;;16.40;8.40;;;;;;;12.16;100.00;97819.21;109371;1253;72555;-65
2023/11/26 07:57:25;;;;;;;10.90;7.00;;;;;;;12.42;100.00;97813.13;109428;1251;60628;-65
2023/11/26 07:59:53;;;;;;;12.70;6.40;;;;;;;12.61;100.00;97818.96;109500;1251;60066;-65
2023/11/26 08:02:21;;;;;;;9.40;5.80;;;;;;;12.73;100.00;97816.77;109430;1251;74742;-63
2023/11/26 08:04:53;;;;;;;11.40;5.30;;;;;;;12.83;100.00;97816.73;109394;1251;66044;-63
2023/11/26 08:07:23;;;;;;;8.00;5.30;;;;;;;12.88;100.00;97819.00;109424;1251;72695;-64
2023/11/26 08:09:51;;;;;;;9.00;5.10;;;;;;;12.94;100.00;97819.71;109429;1251;60619;-65
2023/11/26 08:12:20;;;;;;;10.00;5.70;;;;;;;13.01;100.00;97821.91;109465;1251;59013;-64
2023/11/26 08:14:50;;;;;;;9.60;5.60;;;;;;;13.04;100.00;97818.41;109409;1251;74700;-64
2023/11/26 08:17:22;;;;;;;11.40;4.90;;;;;;;13.07;100.00;97816.49;109483;1251;68705;-64
2023/11/26 08:19:50;;;;;;;10.90;5.70;;;;;;;13.13;100.00;97822.67;109503;1251;71448;-63
2023/11/26 08:22:19;;;;;;;11.00;5.30;;;;;;;13.19;100.00;97822.41;109436;1251;61795;-63
2023/11/26 08:24:47;;;;;;;10.30;6.00;;;;;;;13.27;100.00;97817.29;109432;1251;60644;-63
2023/11/26 08:27:17;;;;;;;9.70;6.20;;;;;;;13.38;100.00;97810.60;109553;1251;73427;-66
2023/11/26 08:29:45;;;;;;;8.70;5.50;;;;;;;13.49;100.00;97804.90;109470;1251;67952;-62
2023/11/26 08:32:14;;;;;;;8.90;4.60;;;;;;;13.61;100.00;97802.22;109537;1251;71409;-61
2023/11/26 08:34:44;;;;;;;9.10;5.20;;;;;;;13.78;100.00;97805.14;109554;1251;61917;-64
2023/11/26 08:37:13;;;;;;;9.70;5.40;;;;;;;13.98;100.00;97804.55;109449;1251;60429;-61
2023/11/26 08:39:51;;;;;;;9.10;4.80;;;;;;;14.19;100.00;97803.86;109561;1251;73442;-62
2023/11/26 08:42:18;;;;;;;8.90;4.70;;;;;;;14.42;100.00;97800.48;109391;1251;65686;-61
2023/11/26 08:44:47;;;;;;;10.50;4.70;;;;;;;14.58;100.00;97791.06;109436;1251;72742;-61
2023/11/26 08:47:17;;;;;;;6.80;4.00;;;;;;;14.67;100.00;97789.56;109432;1251;60718;-61
2023/11/26 08:49:44;;;;;;;12.60;4.60;;;;;;;14.76;100.00;97791.04;109554;1251;59101;-60
2023/11/26 08:52:12;;;;;;;7.80;4.00;;;;;;;14.84;100.00;97787.23;109397;1251;75206;-61
2023/11/26 08:54:40;;;;;;;11.50;5.20;;;;;;;14.84;100.00;97783.23;109453;1251;67890;-60
2023/11/26 08:57:07;;;;;;;9.50;4.10;;;;;;;14.80;100.00;97780.80;109460;1251;73135;-60
2023/11/26 08:59:35;;;;;;;10.80;4.00;;;;;;;14.68;100.00;97773.66;109414;1251;61747;-60
2023/11/26 09:02:03;;;;;;;9.50;4.60;;;;;;;14.56;100.00;97769.80;109455;1251;60650;-60
2023/11/26 09:04:31;;;;;;;16.20;4.40;;;;;;;14.45;100.00;97776.05;109404;1251;75124;-60
2023/11/26 09:06:59;;;;;;;7.10;3.80;;;;;;;14.38;100.00;97767.38;109497;1251;65764;-60
2023/11/26 09:09:27;;;;;;;9.30;4.40;;;;;;;14.33;100.00;97762.00;109401;1253;72724;-60
2023/11/26 09:11:54;;;;;;;10.50;4.20;;;;;;;14.39;100.00;97754.48;109465;1252;63777;-60
2023/11/26 09:14:22;;;;;;;8.90;4.50;;;;;;;14.48;100.00;97750.98;109430;1251;59115;-60
2023/11/26 09:16:50;;;;;;;8.10;4.60;;;;;;;14.51;100.00;97742.56;109453;1251;74765;-59
2023/11/26 09:19:18;;;;;;;8.70;3.70;;;;;;;14.54;100.00;97734.46;109493;1251;65764;-59
2023/11/26 09:21:49;;;;;;;12.50;4.20;;;;;;;14.58;100.00;97731.14;109421;1253;71434;-59
2023/11/26 09:24:17;;;;;;;;;;;;;;;14.59;100.00;97738.21;109368;1251;60553;-59
2023/11/26 09:26:45;;;;;;;9.00;3.80;;;;;;;14.59;100.00;97733.92;109410;1251;58847;-59
2023/11/26 09:29:13;;;;;;;8.90;4.30;;;;;;;14.58;100.00;97730.41;109450;1251;74907;-59
2023/11/26 09:31:54;;;;;;;8.40;3.90;;;;;;;14.58;100.00;97726.38;109552;1250;67416;-59
2023/11/26 09:34:21;;;;;;;9.80;3.80;;;;;;;14.54;100.00;97715.70;109410;1251;71452;-60
2023/11/26 09:36:52;;;;;;;10.20;4.70;;;;;;;14.51;100.00;97710.36;109452;1251;61766;-59
2023/11/26 09:39:19;;;;;;;8.30;4.40;;;;;;;14.46;100.00;97705.75;109392;1251;60349;-59
2023/11/26 09:41:47;;;;;;;10.40;4.00;;;;;;;14.39;100.00;97700.71;109458;1250;74649;-59
2023/11/26 09:44:15;;;;;;;7.30;3.90;;;;;;;14.30;100.00;97693.61;109381;1252;66970;-60
2023/11/26 09:46:45;;;;;;;13.60;4.10;;;;;;;14.22;100.00;97682.75;109396;1251;72763;-59
2023/11/26 09:49:13;;;;;;;8.50;4.50;;;;;;;14.14;100.00;97671.67;109459;1251;61760;-59
2023/11/26 09:51:40;;;;;;;7.90;4.20;;;;;;;14.09;100.00;97661.07;109375;1251;60133;-59
2023/11/26 09:54:10;;;;;;;8.50;4.60;;;;;;;14.05;100.00;97654.80;109389;1251;74668;-60
2023/11/26 09:56:37;;;;;;;7.90;3.70;;;;;;;14.03;100.00;97652.41;109400;1252;67062;-59
2023/11/26 09:59:08;;;;;;;8.60;4.70;;;;;;;14.02;100.00;97649.00;109225;1251;72719;-59
2023/11/26 10:01:35;;;;;;;10.30;4.20;;;;;;;14.01;100.00;97647.84;109369;1251;61748;-59
2023/11/26 10:04:04;;;;;;;7.90;3.90;;;;;;;14.05;100.00;97648.92;109375;1250;58996;-60
2023/11/26 10:06:33;;;;;;;9.80;4.30;;;;;;;14.08;100.00;97649.49;109357;1252;74274;-59
2023/11/26 10:09:00;;;;;;;7.20;4.60;;;;;;;14.12;100.00;97648.22;109407;1250;65722;-59
2023/11/26 10:11:28;;;;;;;14.40;5.40;;;;;;;14.17;100.00;97648.03;109141;1251;72235;-59
2023/11/26 10:13:56;;;;;;;8.60;3.80;;;;;;;14.24;100.00;97639.04;109420;1251;61762;-59
2023/11/26 10:16:33;;;;;;;9.40;4.30;;;;;;;14.36;100.00;97639.60;109412;1250;61044;-59
2023/11/26 10:19:02;;;;;;;10.60;4.30;;;;;;;14.48;100.00;97632.73;109328;1250;73447;-59
2023/11/26 10:21:31;;;;;;;9.70;4.40;;;;;;;14.58;100.00;97629.95;109472;1251;66111;-59
2023/11/26 10:24:00;;;;;;;7.70;4.10;;;;;;;14.61;100.00;97627.83;109346;1251;72613;-59
2023/11/26 10:26:29;;;;;;;7.70;4.30;;;;;;;14.63;100.00;97627.40;109366;1251;60361;-59
2023/11/26 10:29:08;;;;;;;10.70;5.00;;;;;;;14.62;100.00;97617.64;109421;1251;58912;-59
2023/11/26 10:31:37;;;;;;;9.80;5.10;;;;;;;14.63;100.00;97608.89;109260;1255;74704;-64
2023/11/26 10:34:14;;;;;;;11.70;5.40;;;;;;;14.58;100.00;97607.98;109409;1251;66951;-59
2023/11/26 10:36:42;;;;;;;11.90;5.90;;;;;;;14.58;100.00;97603.11;109291;1251;71238;-59
2023/11/26 10:39:11;;;;;;;9.90;5.30;;;;;;;14.55;100.00;97596.63;109338;1251;62735;-59
2023/11/26 10:41:40;;;;;;;7.80;4.60;;;;;;;14.57;100.00;97592.30;109330;1251;60666;-59
2023/11/26 10:44:08;;;;;;;7.20;4.20;;;;;;;14.57;100.00;97587.73;109284;1251;74745;-59
2023/11/26 10:46:36;;;;;;;9.10;4.10;;;;;;;14.55;100.00;97580.59;109430;1250;65666;-59
2023/11/26 10:49:27;;;;;;;5.80;3.20;;;;;;;14.53;100.00;97579.45;109360;1252;72785;-59
2023/11/26 10:52:24;;;;;;;9.20;4.30;;;;;;;14.52;100.00;97563.85;109445;1251;60503;-59
2023/11/26 10:54:56;;;;;;;6.70;3.90;;;;;;;14.50;100.00;97561.06;109464;1251;60057;-59
2023/11/26 10:57:28;;;;;;;6.90;3.90;;;;;;;14.45;100.00;97555.04;109287;1251;75248;-59
2023/11/26 10:59:55;;;;;;;7.10;3.90;;;;;;;14.49;100.00;97548.63;109375;1251;65674;-58
2023/11/26 11:02:24;;;;;;;7.70;4.00;;;;;;;14.47;100.00;97540.88;109371;1251;71822;-59
2023/11/26 11:04:52;;;;;;;7.80;4.00;;;;;;;14.44;100.00;97531.37;109363;1253;62318;-58
2023/11/26 12:32:49;;;;;;;8.90;4.70;;;;;;;12.81;100.00;97418.42;103173;1283;613834;-60
2023/11/26 12:35:20;;;;;;;7.30;3.90;;;;;;;13.04;100.00;97404.40;104748;1270;105890;-58
2023/11/26 12:37:48;;;;;;;7.60;4.20;;;;;;;12.96;100.00;97403.42;104834;1264;59987;-58
2023/11/26 12:40:16;;;;;;;7.80;5.30;;;;;;;12.95;100.00;97399.61;105019;1264;72405;-58
2023/11/26 12:42:43;;;;;;;7.80;5.10;;;;;;;12.94;100.00;97396.59;104905;1271;67510;-58
2023/11/26 12:45:12;;;;;;;8.70;4.00;;;;;;;12.95;100.00;97389.48;104887;1271;72160;-58
2023/11/26 12:47:53;;;;;;;6.60;3.90;;;;;;;12.95;100.00;97385.13;105284;1262;63203;-58
2023/11/26 12:50:22;;;;;;;9.80;3.70;;;;;;;12.92;100.00;97374.69;105265;1262;59389;-59